Time;durP1;ratioP1;P1;durP2;ratioP2;P2;SDS_P1;SDS_P2;PMS_P1;PMS_P2;Temp;Humidity;BMP_temperature;BMP_pressure;BME280_temperature;BME280_humidity;BME280_pressure;Samples;Min_cycle;Max_cycle;Signal;HPM_P1;HPM_P2
2022/01/28 00:00:26;;;;;;;43.92;26.83;;;;;;;;;;2114636;28;20405;-47
2022/01/28 00:01:36;;;;;;;48.65;28.33;;;;;;;;;;2111629;28;20044;-47
2022/01/28 00:02:50;;;;;;;50.90;26.63;;;;;;;;;;2114638;28;20176;-46
2022/01/28 00:04:00;;;;;;;45.40;23.85;;;;;;;;;;2111359;28;20118;-47
2022/01/28 00:05:02;;;;;;;50.15;29.55;;;;;;;;;;2106221;28;20203;-47
2022/01/28 00:06:04;;;;;;;56.58;28.15;;;;;;;;;;2106291;28;20080;-47
2022/01/28 00:07:05;;;;;;;50.88;27.85;;;;;;;;;;2111092;28;20043;-46
2022/01/28 00:08:06;;;;;;;51.33;29.60;;;;;;;;;;2114648;28;20051;-49
2022/01/28 00:09:08;;;;;;;48.33;27.70;;;;;;;;;;2115467;28;20488;-46
2022/01/28 00:10:10;;;;;;;44.08;25.25;;;;;;;;;;2106576;28;20417;-46
2022/01/28 00:11:11;;;;;;;;;;;;;;;;;;2106679;28;20044;-46
2022/01/28 00:12:13;;;;;;;47.03;24.88;;;;;;;;;;2108096;28;20006;-46
2022/01/28 00:13:22;;;;;;;45.33;26.23;;;;;;;;;;2112538;28;20408;-46
2022/01/28 00:14:29;;;;;;;47.38;26.88;;;;;;;;;;2114719;28;20096;-46
2022/01/28 00:15:35;;;;;;;42.88;27.42;;;;;;;;;;2111475;28;20397;-46
2022/01/28 00:17:03;;;;;;;47.70;26.95;;;;;;;;;;2114627;28;20047;-48
2022/01/28 00:20:31;;;;;;;42.95;24.42;;;;;;;;;;2106313;28;20096;-47
2022/01/28 00:37:26;;;;;;;44.67;23.08;;;;;;;;;;2114491;28;20531;-46
2022/01/28 00:38:29;;;;;;;44.90;24.50;;;;;;;;;;2110432;28;20044;-46
2022/01/28 00:39:31;;;;;;;43.05;25.60;;;;;;;;;;2114447;28;20079;-48
2022/01/28 00:40:33;;;;;;;45.15;25.63;;;;;;;;;;2113118;28;20223;-46
2022/01/28 00:41:34;;;;;;;42.85;25.90;;;;;;;;;;2112928;28;20043;-46
2022/01/28 00:42:35;;;;;;;43.75;27.23;;;;;;;;;;2114561;28;20043;-53
2022/01/28 00:43:36;;;;;;;35.88;22.70;;;;;;;;;;2112427;28;20105;-46
2022/01/28 00:44:38;;;;;;;43.55;26.23;;;;;;;;;;2114037;28;20046;-46
2022/01/28 00:45:39;;;;;;;42.00;25.48;;;;;;;;;;2114164;28;20492;-46
2022/01/28 00:46:40;;;;;;;45.38;24.23;;;;;;;;;;2111290;28;20408;-46
2022/01/28 00:47:43;;;;;;;42.25;25.50;;;;;;;;;;2114410;28;20048;-48
2022/01/28 00:48:44;;;;;;;42.20;24.73;;;;;;;;;;2114866;28;20079;-45
2022/01/28 00:49:46;;;;;;;44.47;26.10;;;;;;;;;;2110663;28;20046;-48
2022/01/28 00:50:47;;;;;;;48.47;27.15;;;;;;;;;;2114415;28;20127;-47
2022/01/28 00:51:48;;;;;;;43.08;26.15;;;;;;;;;;2112176;28;20370;-47
2022/01/28 00:52:50;;;;;;;43.33;25.73;;;;;;;;;;2112213;28;20546;-46
2022/01/28 00:53:51;;;;;;;37.83;22.05;;;;;;;;;;2114372;28;20044;-46
2022/01/28 00:54:52;;;;;;;44.70;23.05;;;;;;;;;;2112283;28;20036;-47
2022/01/28 00:55:54;;;;;;;43.75;26.35;;;;;;;;;;2105888;28;20139;-48
2022/01/28 00:56:55;;;;;;;;;;;;;;;;;;2106554;28;20068;-49
2022/01/28 00:57:56;;;;;;;42.58;24.40;;;;;;;;;;2108035;28;19920;-46
2022/01/28 00:58:57;;;;;;;43.67;25.73;;;;;;;;;;2114393;28;20040;-46
2022/01/28 00:59:59;;;;;;;45.30;25.63;;;;;;;;;;2114079;28;20086;-45
2022/01/28 01:01:00;;;;;;;49.13;27.90;;;;;;;;;;2109555;28;20289;-48
2022/01/28 01:02:01;;;;;;;45.05;25.65;;;;;;;;;;2106190;28;20101;-53
2022/01/28 01:03:03;;;;;;;43.03;25.15;;;;;;;;;;2107813;28;20051;-50
2022/01/28 01:04:04;;;;;;;46.65;25.83;;;;;;;;;;2111569;28;20051;-53
2022/01/28 01:05:06;;;;;;;44.67;26.35;;;;;;;;;;2114173;28;20044;-50
2022/01/28 01:06:07;;;;;;;41.35;25.30;;;;;;;;;;2113124;28;20039;-53
2022/01/28 01:07:09;;;;;;;41.92;22.77;;;;;;;;;;2106923;28;20164;-50
2022/01/28 01:08:10;;;;;;;40.92;24.27;;;;;;;;;;2105769;28;20572;-51
2022/01/28 01:09:11;;;;;;;42.17;25.58;;;;;;;;;;2106136;28;20086;-50
2022/01/28 01:10:13;;;;;;;47.67;24.73;;;;;;;;;;2114146;28;20043;-51
2022/01/28 01:11:16;;;;;;;46.13;26.17;;;;;;;;;;2114205;28;20522;-51
2022/01/28 01:12:20;;;;;;;43.25;25.27;;;;;;;;;;2111248;28;20048;-46
2022/01/28 01:13:21;;;;;;;41.65;24.85;;;;;;;;;;2114356;28;20055;-46
2022/01/28 01:14:23;;;;;;;38.70;24.10;;;;;;;;;;2112984;28;20047;-46
2022/01/28 01:15:29;;;;;;;44.45;24.30;;;;;;;;;;2111451;28;20092;-46
2022/01/28 01:16:36;;;;;;;39.53;24.25;;;;;;;;;;2114159;28;20496;-46
2022/01/28 01:17:41;;;;;;;41.63;23.45;;;;;;;;;;2110687;28;20055;-46
2022/01/28 01:18:53;;;;;;;39.55;22.92;;;;;;;;;;2105896;28;20052;-46
2022/01/28 01:20:09;;;;;;;38.63;23.85;;;;;;;;;;2105352;28;20083;-46
2022/01/28 01:21:16;;;;;;;41.83;24.70;;;;;;;;;;2106537;28;20459;-45
2022/01/28 01:22:19;;;;;;;35.80;21.90;;;;;;;;;;2105863;28;20055;-45
2022/01/28 01:23:26;;;;;;;41.00;23.35;;;;;;;;;;2109770;28;20501;-45
2022/01/28 01:24:35;;;;;;;38.78;23.00;;;;;;;;;;2114264;28;20051;-45
2022/01/28 01:25:44;;;;;;;39.55;23.30;;;;;;;;;;2113597;28;20082;-46
2022/01/28 01:26:46;;;;;;;39.83;22.85;;;;;;;;;;2111502;28;20075;-46
2022/01/28 01:27:49;;;;;;;;;;;;;;;;;;2114827;28;20055;-50
2022/01/28 01:28:50;;;;;;;42.22;22.85;;;;;;;;;;2112762;28;20049;-49
2022/01/28 01:29:51;;;;;;;38.20;23.80;;;;;;;;;;2114377;28;20040;-50
2022/01/28 01:30:52;;;;;;;38.78;20.98;;;;;;;;;;2115739;28;20044;-50
2022/01/28 01:32:01;;;;;;;42.05;24.40;;;;;;;;;;2112559;28;20048;-50
2022/01/28 01:33:02;;;;;;;42.60;25.23;;;;;;;;;;2115675;28;20074;-50
2022/01/28 01:34:10;;;;;;;38.15;23.13;;;;;;;;;;2116020;28;20074;-51
2022/01/28 01:35:12;;;;;;;37.83;23.77;;;;;;;;;;2112359;28;20485;-49
2022/01/28 01:36:13;;;;;;;41.90;24.90;;;;;;;;;;2115614;28;20106;-49
2022/01/28 01:37:14;;;;;;;38.17;24.17;;;;;;;;;;2113704;28;20478;-51
2022/01/28 01:38:15;;;;;;;40.53;24.15;;;;;;;;;;2113968;28;20153;-49
2022/01/28 01:39:22;;;;;;;32.50;18.27;;;;;;;;;;2115467;28;20055;-49
2022/01/28 01:40:29;;;;;;;36.78;23.23;;;;;;;;;;2111754;28;20280;-50
2022/01/28 01:41:35;;;;;;;41.55;21.63;;;;;;;;;;2111629;28;20135;-50
2022/01/28 01:42:46;;;;;;;39.20;24.08;;;;;;;;;;2107891;28;20052;-52
2022/01/28 01:43:56;;;;;;;42.33;21.88;;;;;;;;;;2108507;28;20090;-45
2022/01/28 01:46:57;;;;;;;44.00;24.45;;;;;;;;;;2082170;28;20061;-53
2022/01/28 01:52:03;;;;;;;43.22;25.92;;;;;;;;;;2112536;28;20051;-49
2022/01/28 01:53:04;;;;;;;42.10;22.95;;;;;;;;;;2115485;28;20066;-50
2022/01/28 01:54:06;;;;;;;50.63;22.27;;;;;;;;;;2115372;28;20052;-50
2022/01/28 01:55:07;;;;;;;41.97;24.83;;;;;;;;;;2107942;28;20723;-50
2022/01/28 01:56:09;;;;;;;41.33;25.20;;;;;;;;;;2107154;28;20296;-49
2022/01/28 01:57:11;;;;;;;41.60;22.73;;;;;;;;;;2109861;28;20473;-50
2022/01/28 01:58:12;;;;;;;;;;;;;;;;;;2114668;28;20048;-53
2022/01/28 01:59:14;;;;;;;41.15;23.02;;;;;;;;;;2115790;28;19963;-49
2022/01/28 02:00:16;;;;;;;43.33;24.50;;;;;;;;;;2112173;28;20090;-46
2022/01/28 02:01:17;;;;;;;39.90;23.70;;;;;;;;;;2111221;28;20090;-46
2022/01/28 02:02:18;;;;;;;42.53;25.83;;;;;;;;;;2106943;28;20048;-45
2022/01/28 02:03:20;;;;;;;40.45;21.83;;;;;;;;;;2110321;28;20135;-45
2022/01/28 02:04:21;;;;;;;43.67;24.92;;;;;;;;;;2115413;28;20043;-45
2022/01/28 02:05:22;;;;;;;43.00;25.48;;;;;;;;;;2115550;28;20047;-45
2022/01/28 02:06:23;;;;;;;40.22;23.92;;;;;;;;;;2107662;28;20487;-46
2022/01/28 02:07:25;;;;;;;47.88;25.50;;;;;;;;;;2107077;28;20048;-45
2022/01/28 02:08:27;;;;;;;45.42;27.27;;;;;;;;;;2110294;28;20075;-49
2022/01/28 02:09:28;;;;;;;43.67;27.77;;;;;;;;;;2114526;28;20563;-50
2022/01/28 02:10:29;;;;;;;43.65;26.45;;;;;;;;;;2115425;28;20048;-49
2022/01/28 02:11:30;;;;;;;47.63;28.20;;;;;;;;;;2109705;28;20545;-49
2022/01/28 02:12:43;;;;;;;46.00;26.50;;;;;;;;;;2106866;28;20409;-50
2022/01/28 02:13:44;;;;;;;;;;;;;;;;;;2108511;28;20052;-50
2022/01/28 02:14:46;;;;;;;41.42;23.00;;;;;;;;;;2112045;28;19928;-50
2022/01/28 02:15:47;;;;;;;44.95;25.83;;;;;;;;;;2115457;28;20044;-50
2022/01/28 02:16:48;;;;;;;46.43;27.67;;;;;;;;;;2115987;28;20481;-50
2022/01/28 02:17:49;;;;;;;47.83;27.27;;;;;;;;;;2108468;28;20090;-50
2022/01/28 02:18:52;;;;;;;44.77;26.27;;;;;;;;;;2107059;28;20048;-49
2022/01/28 02:19:53;;;;;;;47.90;28.63;;;;;;;;;;2110893;28;20338;-48
2022/01/28 02:21:02;;;;;;;49.63;28.43;;;;;;;;;;2114348;28;20048;-50
2022/01/28 02:22:04;;;;;;;49.47;28.20;;;;;;;;;;2115300;28;20288;-49
2022/01/28 02:23:05;;;;;;;46.45;25.77;;;;;;;;;;2111663;28;20122;-47
2022/01/28 02:24:07;;;;;;;48.85;27.40;;;;;;;;;;2107186;28;20105;-50
2022/01/28 02:25:19;;;;;;;45.75;27.50;;;;;;;;;;2109273;28;20102;-50
2022/01/28 02:26:21;;;;;;;45.35;27.08;;;;;;;;;;2107737;28;20079;-50
2022/01/28 02:27:22;;;;;;;48.60;27.65;;;;;;;;;;2107016;28;20058;-50
2022/01/28 02:28:24;;;;;;;45.03;25.52;;;;;;;;;;2108290;28;20127;-52
2022/01/28 02:29:27;;;;;;;47.65;27.50;;;;;;;;;;2114444;28;20082;-52
2022/01/28 02:30:28;;;;;;;44.22;28.17;;;;;;;;;;2115537;28;20051;-49
2022/01/28 02:31:30;;;;;;;47.05;28.20;;;;;;;;;;2113181;28;20051;-49
2022/01/28 02:32:31;;;;;;;49.88;29.63;;;;;;;;;;2115505;28;20092;-52
2022/01/28 02:33:32;;;;;;;41.73;24.67;;;;;;;;;;2115268;28;20400;-51
2022/01/28 02:34:35;;;;;;;48.00;28.02;;;;;;;;;;2111916;28;20753;-53
2022/01/28 02:35:36;;;;;;;47.50;26.67;;;;;;;;;;2115020;28;20051;-50
2022/01/28 02:36:38;;;;;;;45.10;25.77;;;;;;;;;;2114527;28;20455;-50
2022/01/28 02:37:39;;;;;;;46.88;27.23;;;;;;;;;;2112934;28;20516;-49
2022/01/28 02:38:41;;;;;;;48.05;28.42;;;;;;;;;;2115366;28;20044;-48
2022/01/28 02:39:42;;;;;;;41.83;23.77;;;;;;;;;;2113751;28;20067;-45
2022/01/28 02:40:47;;;;;;;43.92;26.45;;;;;;;;;;2105446;28;20285;-46
2022/01/28 02:41:58;;;;;;;42.97;24.55;;;;;;;;;;2106760;28;20070;-45
2022/01/28 02:43:04;;;;;;;47.38;25.55;;;;;;;;;;2110021;28;20095;-46
2022/01/28 02:44:15;;;;;;;40.50;25.77;;;;;;;;;;2115427;28;20051;-45
2022/01/28 02:45:25;;;;;;;41.28;24.25;;;;;;;;;;2110626;28;20040;-45
2022/01/28 02:46:29;;;;;;;44.60;25.15;;;;;;;;;;2106562;28;20059;-45
2022/01/28 02:47:35;;;;;;;40.33;26.00;;;;;;;;;;2106880;28;20116;-46
2022/01/28 02:48:39;;;;;;;43.70;26.10;;;;;;;;;;2110719;28;20043;-47
2022/01/28 02:49:42;;;;;;;41.75;24.38;;;;;;;;;;2106681;28;20513;-45
2022/01/28 02:50:52;;;;;;;33.92;19.63;;;;;;;;;;2108919;28;20135;-45
2022/01/28 02:51:56;;;;;;;40.67;26.15;;;;;;;;;;2107524;28;20478;-46
2022/01/28 02:53:07;;;;;;;44.17;25.60;;;;;;;;;;2106680;28;20497;-46
2022/01/28 02:54:14;;;;;;;39.72;21.65;;;;;;;;;;2110615;28;20039;-45
2022/01/28 02:55:15;;;;;;;39.03;23.00;;;;;;;;;;2115170;28;20487;-45
2022/01/28 02:56:20;;;;;;;39.27;25.20;;;;;;;;;;2115552;28;20048;-45
2022/01/28 02:57:25;;;;;;;37.28;20.55;;;;;;;;;;2112863;28;20312;-45
2022/01/28 02:58:27;;;;;;;37.35;24.67;;;;;;;;;;2115078;28;20556;-46
2022/01/28 02:59:28;;;;;;;36.70;22.05;;;;;;;;;;2113477;28;20076;-46
2022/01/28 03:00:29;;;;;;;37.00;21.20;;;;;;;;;;2107962;28;20501;-46
2022/01/28 03:01:30;;;;;;;37.67;22.90;;;;;;;;;;2106399;28;20170;-45
2022/01/28 03:02:32;;;;;;;37.13;22.20;;;;;;;;;;2110072;28;20514;-49
2022/01/28 03:03:33;;;;;;;38.95;23.83;;;;;;;;;;2115117;28;20449;-48
2022/01/28 03:05:01;;;;;;;37.42;24.05;;;;;;;;;;2115197;28;20173;-53
2022/01/28 03:06:03;;;;;;;39.30;22.50;;;;;;;;;;2112120;28;20089;-52
2022/01/28 03:07:05;;;;;;;41.72;24.77;;;;;;;;;;2115075;28;20073;-49
2022/01/28 03:08:07;;;;;;;37.53;24.55;;;;;;;;;;2112374;28;20508;-49
2022/01/28 03:09:15;;;;;;;37.45;23.67;;;;;;;;;;2114473;28;20528;-52
2022/01/28 03:10:29;;;;;;;39.67;22.05;;;;;;;;;;2114979;28;20055;-49
2022/01/28 03:11:43;;;;;;;40.60;24.75;;;;;;;;;;2112582;28;20039;-49
2022/01/28 03:13:02;;;;;;;39.97;24.60;;;;;;;;;;2115250;28;20039;-50
2022/01/28 03:14:16;;;;;;;38.35;23.63;;;;;;;;;;2111147;28;20128;-49
2022/01/28 03:15:21;;;;;;;36.58;22.00;;;;;;;;;;2106733;28;20052;-51
2022/01/28 03:16:22;;;;;;;43.40;25.92;;;;;;;;;;2108538;28;20042;-53
2022/01/28 03:17:49;;;;;;;41.50;26.27;;;;;;;;;;2113577;28;20092;-50
2022/01/28 03:18:53;;;;;;;39.78;21.63;;;;;;;;;;2114395;28;20515;-50
2022/01/28 03:19:55;;;;;;;39.15;24.27;;;;;;;;;;2111716;28;20051;-48
2022/01/28 03:21:01;;;;;;;;;;;;;;;;;;2115328;28;20408;-49
2022/01/28 03:22:04;;;;;;;34.88;15.88;;;;;;;;;;2114670;28;19931;-48
2022/01/28 03:23:06;;;;;;;42.20;26.00;;;;;;;;;;2112569;28;20131;-48
2022/01/28 03:24:09;;;;;;;39.78;23.73;;;;;;;;;;2114872;28;20078;-49
2022/01/28 03:25:10;;;;;;;39.97;25.10;;;;;;;;;;2111815;28;20032;-49
2022/01/28 03:26:13;;;;;;;43.03;24.15;;;;;;;;;;2106581;28;20048;-49
2022/01/28 03:27:26;;;;;;;40.60;23.75;;;;;;;;;;2106447;28;20382;-49
2022/01/28 03:28:28;;;;;;;46.03;24.90;;;;;;;;;;2110791;28;20046;-49
2022/01/28 03:29:29;;;;;;;38.95;23.48;;;;;;;;;;2114960;28;20058;-48
2022/01/28 03:30:30;;;;;;;45.58;27.58;;;;;;;;;;2113834;28;20096;-49
2022/01/28 03:31:31;;;;;;;38.35;23.95;;;;;;;;;;2112847;28;20203;-49
2022/01/28 03:32:32;;;;;;;41.00;24.90;;;;;;;;;;2115080;28;20075;-49
2022/01/28 03:33:54;;;;;;;41.08;25.65;;;;;;;;;;2109684;28;20109;-48
2022/01/28 03:34:55;;;;;;;33.08;18.27;;;;;;;;;;2106581;28;20105;-48
2022/01/28 03:35:56;;;;;;;44.15;26.10;;;;;;;;;;2105968;28;20090;-49
2022/01/28 03:36:58;;;;;;;39.47;24.25;;;;;;;;;;2108166;28;20040;-51
2022/01/28 03:38:00;;;;;;;41.35;24.95;;;;;;;;;;2106542;28;20044;-48
2022/01/28 03:39:02;;;;;;;39.75;22.58;;;;;;;;;;2108260;28;20039;-49
2022/01/28 03:40:03;;;;;;;;;;;;;;;;;;2113833;28;20082;-49
2022/01/28 03:41:04;;;;;;;39.40;23.05;;;;;;;;;;2114907;28;19927;-48
2022/01/28 03:42:05;;;;;;;35.10;20.35;;;;;;;;;;2113747;28;20043;-51
2022/01/28 03:43:07;;;;;;;39.22;23.33;;;;;;;;;;2114116;28;20055;-51
2022/01/28 03:44:08;;;;;;;40.00;24.02;;;;;;;;;;2114965;28;20101;-50
2022/01/28 03:45:10;;;;;;;35.13;22.27;;;;;;;;;;2110427;28;20048;-49
2022/01/28 03:46:11;;;;;;;37.85;22.60;;;;;;;;;;2106535;28;20048;-51
2022/01/28 03:47:12;;;;;;;36.58;23.77;;;;;;;;;;2106762;28;20505;-49
2022/01/28 03:48:13;;;;;;;38.90;24.40;;;;;;;;;;2111551;28;20040;-45
2022/01/28 03:49:15;;;;;;;35.13;19.50;;;;;;;;;;2114772;28;20394;-45
2022/01/28 03:50:16;;;;;;;38.20;24.85;;;;;;;;;;2113138;28;20039;-47
2022/01/28 03:51:17;;;;;;;37.85;23.35;;;;;;;;;;2107174;28;20048;-46
2022/01/28 03:52:18;;;;;;;42.10;24.98;;;;;;;;;;2105980;28;20405;-45
2022/01/28 03:53:19;;;;;;;36.47;20.13;;;;;;;;;;2107902;28;20505;-45
2022/01/28 03:54:21;;;;;;;36.88;23.23;;;;;;;;;;2107232;28;20055;-45
2022/01/28 03:55:22;;;;;;;;;;;;;;;;;;2106768;28;20386;-46
2022/01/28 03:56:24;;;;;;;35.13;18.48;;;;;;;;;;2109679;28;19928;-49
2022/01/28 03:57:25;;;;;;;36.55;22.83;;;;;;;;;;2114924;28;20201;-49
2022/01/28 03:58:26;;;;;;;41.28;24.40;;;;;;;;;;2114836;28;20060;-50
2022/01/28 03:59:27;;;;;;;39.55;24.15;;;;;;;;;;2112949;28;20040;-49
2022/01/28 04:00:30;;;;;;;37.75;20.77;;;;;;;;;;2114933;28;20416;-48
2022/01/28 04:01:36;;;;;;;42.92;25.23;;;;;;;;;;2108866;28;20079;-46
2022/01/28 04:02:41;;;;;;;38.65;23.17;;;;;;;;;;2107310;28;20122;-45
2022/01/28 04:03:59;;;;;;;38.70;22.80;;;;;;;;;;2106285;28;20040;-45
2022/01/28 04:11:39;;;;;;;29.63;19.50;;;;;;;;;;2114799;28;20039;-49
2022/01/28 04:12:42;;;;;;;34.90;21.80;;;;;;;;;;2114110;28;20052;-50
2022/01/28 04:13:48;;;;;;;34.05;21.10;;;;;;;;;;2111398;28;20132;-49
2022/01/28 04:15:04;;;;;;;32.92;18.00;;;;;;;;;;2114615;28;20253;-49
2022/01/28 04:16:27;;;;;;;33.65;19.88;;;;;;;;;;2112487;28;20058;-50
2022/01/28 04:17:27;;;;;;;30.30;19.42;;;;;;;;;;2106158;28;20051;-49
2022/01/28 04:18:28;;;;;;;31.50;17.88;;;;;;;;;;2106971;28;20485;-49
2022/01/28 04:19:29;;;;;;;30.20;19.65;;;;;;;;;;2110823;28;20039;-49
2022/01/28 04:20:31;;;;;;;32.83;21.10;;;;;;;;;;2114748;28;20553;-50
2022/01/28 04:21:32;;;;;;;33.13;20.30;;;;;;;;;;2111687;28;20071;-52
2022/01/28 04:22:33;;;;;;;35.87;21.03;;;;;;;;;;2112800;28;20416;-50
2022/01/28 04:23:34;;;;;;;27.25;15.38;;;;;;;;;;2114405;28;20310;-49
2022/01/28 04:24:35;;;;;;;31.70;20.38;;;;;;;;;;2112353;28;20079;-49
2022/01/28 04:25:37;;;;;;;31.48;20.23;;;;;;;;;;2113797;28;20050;-50
2022/01/28 04:26:38;;;;;;;31.65;18.98;;;;;;;;;;2114669;28;20073;-48
2022/01/28 04:27:40;;;;;;;29.45;17.75;;;;;;;;;;2111319;28;20047;-48
2022/01/28 04:28:41;;;;;;;25.55;14.65;;;;;;;;;;2114685;28;20179;-50
2022/01/28 04:29:43;;;;;;;30.10;19.80;;;;;;;;;;2114576;28;20071;-49
2022/01/28 04:30:44;;;;;;;30.50;17.92;;;;;;;;;;2111838;28;20035;-48
2022/01/28 04:31:47;;;;;;;27.45;15.25;;;;;;;;;;2114647;28;20075;-50
2022/01/28 04:32:50;;;;;;;30.77;19.00;;;;;;;;;;2114721;28;20408;-49
2022/01/28 04:33:53;;;;;;;30.98;20.10;;;;;;;;;;2112654;28;20043;-50
2022/01/28 04:34:55;;;;;;;29.77;19.05;;;;;;;;;;2114735;28;20051;-45
2022/01/28 04:35:56;;;;;;;32.85;20.88;;;;;;;;;;2110577;28;20075;-45
2022/01/28 04:37:06;;;;;;;31.50;19.48;;;;;;;;;;2114006;28;20050;-45
2022/01/28 04:38:20;;;;;;;31.38;19.90;;;;;;;;;;2114611;28;20058;-45
2022/01/28 04:39:27;;;;;;;31.45;20.92;;;;;;;;;;2111800;28;20044;-45
2022/01/28 04:40:33;;;;;;;31.92;18.45;;;;;;;;;;2114689;28;20101;-45
2022/01/28 04:41:44;;;;;;;33.03;20.52;;;;;;;;;;2112459;28;20051;-51
2022/01/28 04:42:59;;;;;;;30.13;16.15;;;;;;;;;;2106136;28;20125;-49
2022/01/28 04:44:07;;;;;;;31.05;19.55;;;;;;;;;;2108150;28;20056;-49
2022/01/28 04:45:16;;;;;;;30.55;19.55;;;;;;;;;;2111037;28;20493;-53
2022/01/28 04:46:27;;;;;;;31.15;20.63;;;;;;;;;;2114286;28;20044;-50
2022/01/28 04:47:36;;;;;;;29.65;18.13;;;;;;;;;;2110128;28;20067;-49
2022/01/28 04:48:43;;;;;;;31.85;19.13;;;;;;;;;;2114372;28;20485;-52
2022/01/28 04:49:55;;;;;;;32.47;19.75;;;;;;;;;;2115182;28;20048;-50
2022/01/28 04:51:10;;;;;;;;;;;;;;;;;;2112458;28;20417;-50
2022/01/28 04:52:42;;;;;;;28.90;15.98;;;;;;;;;;2114436;28;20388;-49
2022/01/28 04:53:55;;;;;;;27.60;16.30;;;;;;;;;;2111930;28;20046;-49
2022/01/28 04:55:05;;;;;;;28.95;18.35;;;;;;;;;;2114410;28;20137;-49
2022/01/28 04:56:22;;;;;;;29.55;17.92;;;;;;;;;;2111690;28;20051;-46
2022/01/28 04:57:34;;;;;;;28.98;17.70;;;;;;;;;;2114532;28;20051;-44
2022/01/28 04:58:48;;;;;;;29.13;18.40;;;;;;;;;;2112287;28;20125;-48
2022/01/28 05:00:02;;;;;;;29.35;18.27;;;;;;;;;;2105892;28;20097;-47
2022/01/28 05:02:54;;;;;;;26.73;15.48;;;;;;;;;;2104928;28;20044;-47
2022/01/28 05:04:09;;;;;;;29.40;16.55;;;;;;;;;;2105810;28;20150;-45
2022/01/28 05:05:44;;;;;;;28.85;17.15;;;;;;;;;;2112679;28;20052;-45
2022/01/28 05:07:22;;;;;;;26.83;16.52;;;;;;;;;;2113977;28;20047;-49
2022/01/28 05:10:26;;;;;;;28.52;17.17;;;;;;;;;;2089211;28;20049;-49
2022/01/28 05:11:53;;;;;;;29.13;18.13;;;;;;;;;;2114168;28;20092;-49
2022/01/28 05:15:52;;;;;;;35.92;20.92;;;;;;;;;;2093981;28;20048;-45
2022/01/28 05:26:35;;;;;;;33.17;20.67;;;;;;;;;;2087567;28;20052;-50
2022/01/28 05:27:41;;;;;;;33.55;21.05;;;;;;;;;;2085438;28;20434;-49
2022/01/28 05:28:46;;;;;;;29.85;18.00;;;;;;;;;;2088171;28;20045;-49
2022/01/28 05:29:47;;;;;;;29.60;19.27;;;;;;;;;;2083759;28;20046;-48
2022/01/28 05:30:48;;;;;;;31.30;20.83;;;;;;;;;;2094921;28;20048;-48
2022/01/28 05:31:49;;;;;;;32.22;21.23;;;;;;;;;;2105909;28;20422;-48
2022/01/28 05:32:50;;;;;;;31.27;16.75;;;;;;;;;;2110916;28;20130;-48
2022/01/28 05:33:51;;;;;;;33.70;20.98;;;;;;;;;;2114436;28;20044;-47
2022/01/28 05:34:53;;;;;;;29.50;19.98;;;;;;;;;;2114222;28;20105;-48
2022/01/28 05:35:53;;;;;;;33.10;20.08;;;;;;;;;;2110762;28;20051;-50
2022/01/28 05:36:55;;;;;;;31.05;19.75;;;;;;;;;;2114219;28;20070;-48
2022/01/28 05:37:56;;;;;;;30.75;20.52;;;;;;;;;;2113816;28;20079;-48
2022/01/28 05:38:57;;;;;;;31.85;20.65;;;;;;;;;;2111781;28;20107;-48
2022/01/28 05:39:58;;;;;;;33.60;21.27;;;;;;;;;;2114400;28;20057;-47
2022/01/28 05:40:59;;;;;;;38.53;21.52;;;;;;;;;;2112187;28;20044;-47
2022/01/28 05:42:00;;;;;;;31.25;21.27;;;;;;;;;;2112846;28;20128;-48
2022/01/28 05:43:01;;;;;;;29.60;18.05;;;;;;;;;;2114117;28;20565;-47
2022/01/28 05:44:03;;;;;;;32.60;22.40;;;;;;;;;;2111025;28;20101;-46
2022/01/28 05:45:05;;;;;;;28.70;16.13;;;;;;;;;;2114013;28;20409;-47
2022/01/28 05:46:08;;;;;;;30.40;19.77;;;;;;;;;;2114097;28;20067;-47
2022/01/28 05:47:14;;;;;;;30.15;19.73;;;;;;;;;;2111067;28;20089;-47
2022/01/28 05:48:16;;;;;;;31.02;20.13;;;;;;;;;;2114207;28;20059;-47
2022/01/28 05:49:17;;;;;;;31.88;19.70;;;;;;;;;;2113358;28;20485;-48
2022/01/28 05:50:18;;;;;;;25.80;17.87;;;;;;;;;;2111712;28;20127;-47
2022/01/28 05:51:20;;;;;;;29.15;18.42;;;;;;;;;;2113886;28;20496;-48
2022/01/28 05:52:21;;;;;;;31.35;18.92;;;;;;;;;;2109607;28;20048;-47
2022/01/28 05:53:22;;;;;;;31.27;19.13;;;;;;;;;;2112719;28;20043;-47
2022/01/28 05:54:23;;;;;;;29.67;19.15;;;;;;;;;;2114188;28;20051;-48
2022/01/28 05:55:24;;;;;;;31.58;20.00;;;;;;;;;;2109485;28;20044;-46
2022/01/28 05:56:26;;;;;;;29.53;20.37;;;;;;;;;;2113968;28;20050;-47
2022/01/28 05:57:27;;;;;;;32.72;19.92;;;;;;;;;;2114008;28;20310;-46
2022/01/28 05:58:28;;;;;;;33.10;21.10;;;;;;;;;;2110818;28;20036;-47
2022/01/28 05:59:30;;;;;;;28.73;19.02;;;;;;;;;;2114041;28;20521;-47
2022/01/28 06:00:31;;;;;;;;;;;;;;;;;;2115162;28;20039;-47
2022/01/28 06:01:32;;;;;;;32.42;20.23;;;;;;;;;;2105432;28;19920;-48
2022/01/28 06:02:34;;;;;;;32.22;20.40;;;;;;;;;;2105846;28;20048;-49
2022/01/28 06:03:35;;;;;;;37.30;23.30;;;;;;;;;;2105897;28;20051;-47
2022/01/28 06:04:37;;;;;;;30.83;16.08;;;;;;;;;;2111762;28;20056;-47
2022/01/28 06:05:38;;;;;;;35.45;20.67;;;;;;;;;;2114172;28;20516;-48
2022/01/28 06:06:39;;;;;;;26.98;14.85;;;;;;;;;;2113374;28;20044;-47
2022/01/28 06:07:42;;;;;;;35.70;20.08;;;;;;;;;;2105577;28;20043;-47
2022/01/28 06:08:43;;;;;;;33.88;21.58;;;;;;;;;;2105635;28;20048;-47
2022/01/28 06:09:44;;;;;;;28.87;19.57;;;;;;;;;;2107344;28;20067;-48
2022/01/28 06:10:45;;;;;;;36.40;21.67;;;;;;;;;;2113813;28;20408;-48
2022/01/28 06:11:46;;;;;;;33.33;21.92;;;;;;;;;;2112636;28;20044;-47
2022/01/28 06:12:47;;;;;;;;;;;;;;;;;;2111141;28;20108;-47
2022/01/28 06:13:49;;;;;;;34.65;19.80;;;;;;;;;;2114235;28;20010;-47
2022/01/28 06:14:50;;;;;;;30.85;18.65;;;;;;;;;;2113265;28;20074;-48
2022/01/28 06:15:51;;;;;;;32.00;20.88;;;;;;;;;;2113459;28;20439;-47
2022/01/28 06:16:52;;;;;;;31.10;18.90;;;;;;;;;;2115352;28;20052;-48
2022/01/28 06:17:54;;;;;;;31.88;18.92;;;;;;;;;;2113869;28;20044;-49
2022/01/28 06:18:54;;;;;;;29.63;19.15;;;;;;;;;;2114446;28;20062;-48
2022/01/28 06:19:56;;;;;;;29.88;20.90;;;;;;;;;;2115427;28;20066;-50
2022/01/28 06:20:57;;;;;;;31.42;19.52;;;;;;;;;;2112136;28;20044;-49
2022/01/28 06:21:58;;;;;;;33.15;20.58;;;;;;;;;;2115465;28;20047;-49
2022/01/28 06:22:59;;;;;;;31.70;21.40;;;;;;;;;;2109969;28;20133;-49
2022/01/28 06:24:00;;;;;;;32.05;18.70;;;;;;;;;;2110080;28;20075;-48
2022/01/28 06:25:01;;;;;;;35.65;21.20;;;;;;;;;;2115201;28;20150;-49
2022/01/28 06:26:03;;;;;;;34.25;22.25;;;;;;;;;;2113099;28;20051;-46
2022/01/28 06:27:05;;;;;;;35.17;22.83;;;;;;;;;;2112319;28;20047;-47
2022/01/28 06:28:06;;;;;;;36.05;21.92;;;;;;;;;;2115300;28;20055;-46
2022/01/28 06:29:08;;;;;;;32.22;19.67;;;;;;;;;;2113327;28;20040;-48
2022/01/28 06:30:10;;;;;;;35.90;20.88;;;;;;;;;;2113907;28;20535;-46
2022/01/28 06:31:11;;;;;;;28.48;19.02;;;;;;;;;;2115315;28;20043;-47
2022/01/28 06:32:12;;;;;;;26.83;17.20;;;;;;;;;;2112107;28;20044;-47
2022/01/28 06:33:14;;;;;;;29.38;19.98;;;;;;;;;;2115393;28;20052;-47
2022/01/28 06:34:15;;;;;;;29.27;19.70;;;;;;;;;;2114757;28;20048;-49
2022/01/28 06:35:16;;;;;;;29.25;18.20;;;;;;;;;;2112138;28;20066;-50
2022/01/28 06:36:20;;;;;;;29.83;18.48;;;;;;;;;;2115185;28;20051;-48
2022/01/28 06:37:20;;;;;;;33.67;22.33;;;;;;;;;;2115741;28;20446;-48
2022/01/28 06:38:22;;;;;;;30.47;19.17;;;;;;;;;;2111856;28;20051;-52
2022/01/28 06:39:23;;;;;;;29.35;20.40;;;;;;;;;;2115210;28;20048;-48
2022/01/28 06:40:24;;;;;;;32.50;19.95;;;;;;;;;;2114693;28;20108;-50
2022/01/28 06:41:25;;;;;;;32.47;20.90;;;;;;;;;;2113983;28;20047;-48
2022/01/28 06:42:26;;;;;;;32.90;21.17;;;;;;;;;;2115332;28;20048;-48
2022/01/28 06:43:27;;;;;;;30.38;21.25;;;;;;;;;;2112800;28;20040;-50
2022/01/28 06:44:29;;;;;;;31.23;18.58;;;;;;;;;;2114873;28;20272;-50
2022/01/28 06:45:31;;;;;;;31.92;20.25;;;;;;;;;;2115207;28;20071;-49
2022/01/28 06:46:32;;;;;;;;;;;;;;;;;;2109738;28;20047;-48
2022/01/28 06:47:35;;;;;;;30.77;19.35;;;;;;;;;;2115495;28;19926;-49
2022/01/28 06:48:36;;;;;;;39.13;23.10;;;;;;;;;;2115715;28;20396;-49
2022/01/28 06:49:37;;;;;;;32.67;21.90;;;;;;;;;;2107871;28;20048;-47
2022/01/28 06:50:38;;;;;;;31.33;21.42;;;;;;;;;;2106680;28;20285;-47
2022/01/28 06:51:39;;;;;;;40.75;25.00;;;;;;;;;;2107451;28;20875;-47
2022/01/28 06:52:42;;;;;;;40.15;23.77;;;;;;;;;;2112520;28;20043;-48
2022/01/28 06:53:43;;;;;;;34.42;22.10;;;;;;;;;;2115230;28;20054;-48
2022/01/28 06:54:44;;;;;;;34.83;21.58;;;;;;;;;;2113164;28;20088;-47
2022/01/28 06:55:45;;;;;;;36.42;23.65;;;;;;;;;;2107482;28;20109;-48
2022/01/28 06:56:46;;;;;;;37.85;22.17;;;;;;;;;;2106731;28;20047;-48
2022/01/28 06:57:47;;;;;;;35.27;22.70;;;;;;;;;;2109519;28;20048;-47
2022/01/28 06:58:48;;;;;;;39.80;23.17;;;;;;;;;;2106712;28;20342;-48
2022/01/28 06:59:54;;;;;;;38.47;24.17;;;;;;;;;;2106969;28;20498;-49
2022/01/28 07:00:56;;;;;;;39.40;23.67;;;;;;;;;;2107969;28;20048;-47